createdAt,value
2022-10-04T00:01:52.187Z,2.78
2022-10-04T00:04:33.223Z,2.70
2022-10-04T00:07:08.394Z,2.95
2022-10-04T00:09:46.141Z,2.80
2022-10-04T00:12:21.763Z,2.80
2022-10-04T00:14:52.757Z,2.92
2022-10-04T00:17:32.342Z,2.63
2022-10-04T00:20:04.829Z,2.97
2022-10-04T00:22:34.190Z,3.20
2022-10-04T00:25:19.461Z,3.10
2022-10-04T00:28:27.768Z,3.05
2022-10-04T00:31:25.322Z,2.80
2022-10-04T00:34:18.845Z,2.83
2022-10-04T00:36:55.254Z,2.78
2022-10-04T00:39:43.530Z,2.78
2022-10-04T00:42:46.261Z,2.90
2022-10-04T00:45:35.805Z,2.95
2022-10-04T00:48:34.024Z,3.45
2022-10-04T00:51:15.033Z,2.83
2022-10-04T00:53:58.157Z,2.63
2022-10-04T00:56:35.498Z,2.95
2022-10-04T00:59:26.159Z,2.70
2022-10-04T01:02:00.634Z,2.80
2022-10-04T01:04:44.662Z,3.15
2022-10-04T01:07:22.537Z,2.90
2022-10-04T01:09:57.298Z,2.70
2022-10-04T01:12:44.420Z,2.90
2022-10-04T01:15:18.808Z,3.38
2022-10-04T01:18:10.064Z,2.50
2022-10-04T01:20:41.042Z,2.58
2022-10-04T01:23:12.238Z,2.70
2022-10-04T01:25:51.140Z,2.92
2022-10-04T01:28:19.275Z,2.70
2022-10-04T01:30:47.523Z,3.10
2022-10-04T01:33:15.633Z,2.90
2022-10-04T01:35:44.650Z,2.72
2022-10-04T01:38:13.997Z,3.30
2022-10-04T01:40:49.416Z,2.65
2022-10-04T01:43:27.831Z,2.90
2022-10-04T01:46:02.151Z,3.00
2022-10-04T01:48:37.491Z,2.75
2022-10-04T01:51:15.412Z,2.78
2022-10-04T01:53:55.403Z,2.95
2022-10-04T01:56:30.558Z,2.95
2022-10-04T01:59:04.112Z,2.75
2022-10-04T02:01:40.175Z,2.75
2022-10-04T02:04:21.889Z,3.05
2022-10-04T02:06:54.038Z,3.20
2022-10-04T02:09:29.421Z,2.95
2022-10-04T02:12:00.123Z,2.20
2022-10-04T02:14:34.036Z,3.00
2022-10-04T02:17:07.921Z,3.10
2022-10-04T02:19:39.849Z,3.08
2022-10-04T02:22:12.272Z,2.95
2022-10-04T02:24:45.865Z,3.00
2022-10-04T02:27:14.971Z,3.35
2022-10-04T02:29:43.599Z,3.08
2022-10-04T02:32:32.076Z,3.40
2022-10-04T02:35:00.304Z,3.10
2022-10-04T02:37:30.009Z,2.92
2022-10-04T02:40:09.135Z,3.00
2022-10-04T02:42:45.673Z,3.00
2022-10-04T02:45:25.262Z,2.60
2022-10-04T02:48:02.422Z,3.28
2022-10-04T02:50:37.071Z,3.10
2022-10-04T02:53:19.150Z,3.05
2022-10-04T02:55:49.697Z,2.85
2022-10-04T02:58:23.569Z,3.17
2022-10-04T03:00:56.762Z,3.58
2022-10-04T03:03:28.964Z,3.50
2022-10-04T03:06:05.066Z,3.38
2022-10-04T03:08:38.680Z,3.20
2022-10-04T03:11:09.572Z,3.35
2022-10-04T03:13:38.799Z,3.15
2022-10-04T03:16:07.763Z,2.88
2022-10-04T03:18:37.811Z,3.03
2022-10-04T03:21:10.450Z,3.08
2022-10-04T03:23:40.570Z,2.80
2022-10-04T03:26:25.152Z,2.97
2022-10-04T03:28:53.211Z,3.05
2022-10-04T03:31:21.622Z,2.88
2022-10-04T03:33:50.784Z,2.83
2022-10-04T03:36:20.602Z,2.92
2022-10-04T03:38:53.425Z,2.78
2022-10-04T03:41:25.651Z,2.97
2022-10-04T03:43:56.340Z,3.28
2022-10-04T03:46:26.655Z,3.13
2022-10-04T03:48:56.863Z,3.17
2022-10-04T03:51:27.748Z,3.15
2022-10-04T03:53:59.568Z,2.92
2022-10-04T03:56:33.441Z,2.85
2022-10-04T03:59:06.270Z,3.30
2022-10-04T04:01:42.029Z,2.72
2022-10-04T04:04:23.062Z,3.13
2022-10-04T04:07:02.329Z,2.83
2022-10-04T04:09:41.904Z,2.85
2022-10-04T04:12:20.900Z,2.72
2022-10-04T04:14:53.955Z,2.75
2022-10-04T04:17:41.566Z,2.80
2022-10-04T04:20:25.661Z,2.97
2022-10-04T04:23:06.570Z,2.58
2022-10-04T04:25:39.380Z,2.95
2022-10-04T04:28:26.487Z,2.20
2022-10-04T04:31:01.381Z,2.85
2022-10-04T04:33:34.216Z,3.22
2022-10-04T04:36:08.111Z,3.03
2022-10-04T04:38:59.324Z,3.05
2022-10-04T04:41:31.337Z,2.85
2022-10-04T04:44:03.830Z,2.92
2022-10-04T04:46:34.814Z,2.75
2022-10-04T04:49:05.966Z,3.10
2022-10-04T04:51:34.724Z,2.95
2022-10-04T04:54:07.797Z,2.70
2022-10-04T04:56:36.616Z,3.13
2022-10-04T04:59:08.961Z,2.92
2022-10-04T05:01:44.435Z,2.88
2022-10-04T05:04:22.190Z,2.60
2022-10-04T05:07:03.296Z,2.67
2022-10-04T05:09:34.092Z,2.88
2022-10-04T05:12:09.514Z,3.15
2022-10-04T05:14:42.125Z,2.85
2022-10-04T05:17:22.873Z,2.85
2022-10-04T05:19:58.435Z,3.17
2022-10-04T05:22:32.087Z,3.03
2022-10-04T05:25:15.158Z,2.80
2022-10-04T05:27:45.822Z,2.97
2022-10-04T05:30:38.426Z,3.33
2022-10-04T05:33:09.466Z,2.90
2022-10-04T05:35:58.717Z,3.30
2022-10-04T05:38:40.301Z,3.55
2022-10-04T05:41:15.289Z,3.53
2022-10-04T05:43:48.126Z,3.40
2022-10-04T05:46:25.856Z,3.20
2022-10-04T05:48:59.280Z,3.45
2022-10-04T05:51:31.602Z,3.28
2022-10-04T05:54:02.847Z,3.10
2022-10-04T05:57:01.163Z,2.97
2022-10-04T05:59:58.470Z,3.20
2022-10-04T06:02:52.923Z,2.80
2022-10-04T06:05:29.411Z,2.88
2022-10-04T06:08:08.206Z,3.08
2022-10-04T06:10:57.467Z,3.30
2022-10-04T06:14:00.374Z,3.10
2022-10-04T06:16:54.634Z,3.28
2022-10-04T06:20:08.286Z,3.50
2022-10-04T06:22:45.624Z,3.38
2022-10-04T06:25:22.054Z,3.47
2022-10-04T06:27:58.165Z,3.20
2022-10-04T06:30:27.225Z,3.38
2022-10-04T06:33:24.054Z,3.42
2022-10-04T06:36:27.984Z,3.28
2022-10-04T06:39:25.412Z,3.15
2022-10-04T06:42:33.814Z,3.60
2022-10-04T06:45:38.901Z,3.33
2022-10-04T06:48:36.264Z,2.95
2022-10-04T06:51:22.435Z,3.25
2022-10-04T06:54:07.362Z,3.15
2022-10-04T06:57:13.720Z,3.30
2022-10-04T07:00:00.626Z,3.25
2022-10-04T07:02:36.826Z,3.17
2022-10-04T07:05:16.201Z,3.80
2022-10-04T07:08:06.283Z,3.17
2022-10-04T07:10:49.731Z,3.47
2022-10-04T07:13:38.446Z,3.30
2022-10-04T07:16:19.603Z,3.53
2022-10-04T07:19:08.280Z,3.63
2022-10-04T07:21:46.670Z,4.10
2022-10-04T07:24:34.944Z,3.97
2022-10-04T07:27:05.371Z,3.88
2022-10-04T07:29:42.367Z,3.88
2022-10-04T07:32:21.266Z,3.58
2022-10-04T07:34:57.917Z,4.07
2022-10-04T07:37:30.337Z,3.53
2022-10-04T07:40:07.237Z,3.72
2022-10-04T07:42:42.023Z,3.85
2022-10-04T07:45:20.741Z,4.22
2022-10-04T07:47:49.047Z,3.53
2022-10-04T07:50:26.218Z,4.20
2022-10-04T07:53:07.164Z,3.70
2022-10-04T07:55:56.236Z,3.50
2022-10-04T07:58:48.438Z,4.15
2022-10-04T08:01:29.890Z,4.15
2022-10-04T08:04:28.281Z,4.28
2022-10-04T08:07:02.022Z,4.28
2022-10-04T08:09:52.825Z,4.38
2022-10-04T08:12:28.840Z,4.22
2022-10-04T08:15:20.028Z,4.20
2022-10-04T08:17:58.238Z,4.72
2022-10-04T08:20:37.775Z,4.28
2022-10-04T08:23:23.767Z,4.45
2022-10-04T08:26:10.307Z,3.85
2022-10-04T08:29:05.182Z,4.03
2022-10-04T08:31:54.240Z,4.53
2022-10-04T08:34:42.967Z,4.00
2022-10-04T08:37:29.038Z,4.25
2022-10-04T08:40:34.147Z,4.28
2022-10-04T08:43:37.367Z,4.78
2022-10-04T08:46:49.135Z,4.28
2022-10-04T08:49:46.503Z,4.35
2022-10-04T08:52:48.317Z,3.92
2022-10-04T08:55:49.798Z,4.30
2022-10-04T08:58:40.862Z,3.70
2022-10-04T09:01:52.244Z,3.58
2022-10-04T09:05:14.727Z,3.70
2022-10-04T09:08:23.853Z,3.38
2022-10-04T09:11:32.146Z,3.60
2022-10-04T09:14:49.503Z,4.30
2022-10-04T09:17:33.154Z,3.47
2022-10-04T09:20:37.929Z,3.78
2022-10-04T09:23:34.778Z,3.92
2022-10-04T09:26:21.951Z,4.10
2022-10-04T09:29:22.860Z,3.97
2022-10-04T09:32:46.264Z,3.50
2022-10-04T09:35:47.493Z,3.30
2022-10-04T09:39:28.934Z,2.78
2022-10-04T09:42:58.325Z,3.05
2022-10-04T09:46:08.758Z,2.97
2022-10-04T09:48:54.747Z,3.55
2022-10-04T09:52:02.567Z,3.08
2022-10-04T09:55:05.131Z,3.13
2022-10-04T09:58:00.921Z,2.75
2022-10-04T10:00:37.492Z,2.67
2022-10-04T10:03:37.690Z,2.33
2022-10-04T10:06:29.593Z,2.00
2022-10-04T10:09:52.896Z,2.00
2022-10-04T10:13:19.372Z,2.47
2022-10-04T10:16:00.319Z,2.40
2022-10-04T10:18:47.393Z,2.63
2022-10-04T10:21:39.708Z,2.20
2022-10-04T10:24:58.220Z,2.22
2022-10-04T10:27:52.930Z,2.38
2022-10-04T10:30:26.454Z,2.10
2022-10-04T10:33:55.765Z,2.47
2022-10-04T10:36:47.547Z,2.35
2022-10-04T10:40:03.579Z,2.65
2022-10-04T10:42:57.063Z,2.72
2022-10-04T10:45:45.609Z,2.67
2022-10-04T10:48:24.832Z,2.38
2022-10-04T10:51:10.387Z,2.50
2022-10-04T10:54:36.519Z,2.63
2022-10-04T10:57:24.367Z,2.40
2022-10-04T11:00:20.659Z,2.50
2022-10-04T11:03:35.234Z,2.15
2022-10-04T11:06:55.351Z,2.00
2022-10-04T11:10:04.840Z,2.10
2022-10-04T11:13:21.324Z,1.98
2022-10-04T11:16:21.252Z,2.25
2022-10-04T11:19:43.370Z,2.17
2022-10-04T11:23:06.080Z,2.25
2022-10-04T11:25:58.735Z,2.50
2022-10-04T11:28:43.373Z,2.13
2022-10-04T11:32:02.155Z,1.85
2022-10-04T11:35:24.631Z,2.17
2022-10-04T11:38:11.142Z,1.90
2022-10-04T11:41:10.916Z,2.20
2022-10-04T11:44:13.194Z,2.50
2022-10-04T11:46:51.499Z,2.17
2022-10-04T11:49:50.487Z,2.20
2022-10-04T11:53:09.040Z,2.40
2022-10-04T11:56:05.819Z,2.42
2022-10-04T11:58:53.942Z,2.55
2022-10-04T12:02:07.419Z,2.20
2022-10-04T12:05:24.503Z,2.38
2022-10-04T12:08:10.940Z,2.75
2022-10-04T12:10:42.340Z,2.50
2022-10-04T12:13:50.057Z,2.45
2022-10-04T12:17:08.513Z,2.10
2022-10-04T12:20:12.014Z,2.45
2022-10-04T12:23:11.153Z,2.20
2022-10-04T12:26:07.162Z,2.22
2022-10-04T12:28:54.209Z,2.13
2022-10-04T12:31:30.029Z,2.28
2022-10-04T12:34:14.559Z,1.92
2022-10-04T12:37:06.918Z,2.42
2022-10-04T12:40:09.477Z,2.25
2022-10-04T12:42:53.156Z,2.67
2022-10-04T12:45:50.154Z,2.70
2022-10-04T12:48:38.920Z,2.10
2022-10-04T12:51:28.935Z,2.33
2022-10-04T12:54:11.027Z,2.45
2022-10-04T12:56:50.384Z,2.70
2022-10-04T12:59:52.067Z,2.50
2022-10-04T13:02:40.013Z,2.20
2022-10-04T13:05:22.319Z,2.40
2022-10-04T13:08:20.937Z,2.20
2022-10-04T13:11:39.732Z,2.10
2022-10-04T13:14:45.091Z,2.30
2022-10-04T13:17:36.135Z,2.38
2022-10-04T13:20:27.842Z,2.53
2022-10-04T13:23:04.980Z,1.73
2022-10-04T13:26:05.381Z,2.08
2022-10-04T13:28:46.915Z,2.38
2022-10-04T13:31:25.747Z,1.90
2022-10-04T13:34:12.353Z,2.25
2022-10-04T13:37:03.914Z,2.40
2022-10-04T13:40:01.140Z,2.38
2022-10-04T13:42:51.456Z,2.10
2022-10-04T13:45:37.865Z,2.30
2022-10-04T13:48:49.524Z,1.88
2022-10-04T13:51:48.772Z,1.63
2022-10-04T13:54:51.027Z,1.90
2022-10-04T13:57:31.024Z,1.77
2022-10-04T14:00:06.750Z,1.77
2022-10-04T14:03:19.893Z,1.75
2022-10-04T14:06:26.370Z,1.70
2022-10-04T14:09:29.173Z,1.52
2022-10-04T14:12:41.571Z,1.67
2022-10-04T14:16:01.301Z,1.55
2022-10-04T14:19:37.338Z,1.58
2022-10-04T14:22:41.137Z,1.63
2022-10-04T14:26:08.517Z,1.83
2022-10-04T14:29:28.797Z,1.42
2022-10-04T14:32:57.492Z,1.70
2022-10-04T14:35:31.172Z,1.42
2022-10-04T14:39:01.368Z,1.50
2022-10-04T14:42:03.991Z,1.70
2022-10-04T14:45:18.026Z,1.80
2022-10-04T15:05:05.223Z,2.10
2022-10-04T15:07:39.424Z,1.90
2022-10-04T15:13:33.049Z,1.80
2022-10-04T15:16:38.233Z,1.75
2022-10-04T15:19:27.696Z,1.58
2022-10-04T15:25:52.215Z,1.50
2022-10-04T15:32:35.245Z,1.63
2022-10-04T15:38:15.175Z,1.83
2022-10-04T15:41:03.230Z,1.83
2022-10-04T15:43:55.116Z,1.73
2022-10-04T15:46:44.392Z,1.73
2022-10-04T15:49:37.136Z,1.52
2022-10-04T15:53:57.199Z,1.70
2022-10-04T15:56:46.307Z,1.60
2022-10-04T15:59:37.234Z,1.77
2022-10-04T16:02:50.605Z,1.50
2022-10-04T16:05:32.405Z,2.20
2022-10-04T16:08:55.722Z,1.70
2022-10-04T16:11:51.217Z,1.67
2022-10-04T16:14:58.495Z,1.90
2022-10-04T16:17:58.601Z,1.80
2022-10-04T16:21:06.046Z,1.77
2022-10-04T16:23:36.765Z,1.83
2022-10-04T16:26:08.136Z,1.65
2022-10-04T16:29:06.780Z,1.70
2022-10-04T16:32:04.996Z,1.67
2022-10-04T16:34:49.783Z,1.77
2022-10-04T16:37:32.329Z,2.22
2022-10-04T16:40:16.609Z,1.90
2022-10-04T16:42:56.323Z,2.50
2022-10-04T16:45:50.348Z,1.90
2022-10-04T16:48:50.114Z,2.03
2022-10-04T16:52:05.455Z,2.40
2022-10-04T16:55:09.029Z,2.10
2022-10-04T16:57:38.035Z,1.92
2022-10-04T17:00:34.934Z,2.10
2022-10-04T17:03:21.474Z,2.13
2022-10-04T17:06:14.317Z,2.20
2022-10-04T17:09:03.974Z,1.80
2022-10-04T17:12:11.769Z,2.22
2022-10-04T17:14:59.851Z,2.00
2022-10-04T17:17:47.000Z,2.30
2022-10-04T17:20:31.593Z,2.05
2022-10-04T17:23:25.192Z,2.47
2022-10-04T17:26:09.822Z,1.85
2022-10-04T17:28:57.472Z,2.15
2022-10-04T17:31:41.083Z,2.03
2022-10-04T17:34:27.673Z,2.22
2022-10-04T17:37:11.705Z,2.38
2022-10-04T17:39:48.900Z,2.55
2022-10-04T17:42:40.596Z,2.20
2022-10-04T17:45:30.946Z,2.47
2022-10-04T17:48:24.109Z,2.35
2022-10-04T17:51:21.103Z,2.05
2022-10-04T17:54:14.995Z,2.20
2022-10-04T17:56:50.306Z,2.42
2022-10-04T17:59:27.350Z,2.42
2022-10-04T18:02:10.687Z,2.60
2022-10-04T18:04:51.249Z,2.70
2022-10-04T18:07:23.924Z,3.00
2022-10-04T18:09:57.150Z,3.13
2022-10-04T18:12:33.130Z,3.05
2022-10-04T18:15:11.368Z,3.42
2022-10-04T18:17:45.196Z,3.28
2022-10-04T18:20:32.406Z,3.70
2022-10-04T18:23:04.006Z,3.65
2022-10-04T18:25:34.177Z,3.45
2022-10-04T18:28:06.844Z,3.20
2022-10-04T18:30:52.122Z,3.50
2022-10-04T18:33:26.618Z,3.47
2022-10-04T18:36:05.496Z,3.63
2022-10-04T18:38:35.804Z,4.10
2022-10-04T18:41:20.551Z,3.90
2022-10-04T18:44:04.967Z,3.97
2022-10-04T18:46:41.383Z,4.40
2022-10-04T18:49:18.167Z,4.75
2022-10-04T18:52:04.604Z,4.45
2022-10-04T18:54:47.138Z,4.15
2022-10-04T18:57:31.245Z,4.15
2022-10-04T19:00:28.455Z,4.40
2022-10-04T19:03:12.163Z,4.47
2022-10-04T19:05:52.115Z,4.28
2022-10-04T19:08:37.650Z,3.78
2022-10-04T19:11:13.361Z,4.78
2022-10-04T19:13:53.098Z,4.30
2022-10-04T19:16:38.092Z,4.32
2022-10-04T19:19:40.432Z,4.07
2022-10-04T19:22:22.689Z,4.30
2022-10-04T19:25:35.206Z,4.55
2022-10-04T19:28:09.466Z,4.75
2022-10-04T19:30:59.107Z,5.13
2022-10-04T19:33:41.007Z,4.97
2022-10-04T19:36:36.461Z,4.43
2022-10-04T19:39:19.087Z,4.70
2022-10-04T19:41:58.000Z,4.38
2022-10-04T19:44:52.907Z,4.40
2022-10-04T19:47:40.055Z,3.78
2022-10-04T19:50:27.405Z,3.60
2022-10-04T19:53:02.002Z,4.30
2022-10-04T19:55:43.823Z,4.10
2022-10-04T19:58:28.123Z,3.58
2022-10-04T20:00:56.157Z,3.75
2022-10-04T20:03:25.783Z,3.65
2022-10-04T20:05:56.446Z,3.45
2022-10-04T20:08:59.391Z,4.30
2022-10-04T20:11:49.487Z,3.85
2022-10-04T20:15:09.128Z,3.80
2022-10-04T20:17:37.724Z,4.22
2022-10-04T20:20:07.087Z,3.97
2022-10-04T20:22:56.679Z,4.15
2022-10-04T20:26:02.290Z,4.00
2022-10-04T20:28:44.422Z,4.03
2022-10-04T20:31:47.431Z,3.55
2022-10-04T20:34:32.993Z,4.32
2022-10-04T20:37:03.746Z,3.50
2022-10-04T20:40:01.554Z,3.72
2022-10-04T20:42:33.625Z,4.18
2022-10-04T20:45:23.312Z,3.90
2022-10-04T20:47:54.697Z,4.07
2022-10-04T20:50:40.634Z,3.90
2022-10-04T20:53:20.602Z,4.47
2022-10-04T20:55:50.142Z,4.75
2022-10-04T20:58:31.475Z,4.65
2022-10-04T21:01:11.768Z,4.53
2022-10-04T21:03:39.864Z,4.22
2022-10-04T21:06:10.832Z,4.45
2022-10-04T21:08:41.464Z,4.90
2022-10-04T21:11:19.321Z,4.00
2022-10-04T21:13:57.936Z,4.68
2022-10-04T21:16:48.080Z,4.88
2022-10-04T21:19:50.174Z,3.97
2022-10-04T21:22:41.007Z,4.65
2022-10-04T21:25:33.516Z,4.30
2022-10-04T21:28:25.282Z,4.63
2022-10-04T21:30:53.241Z,4.75
2022-10-04T21:33:21.170Z,4.38
2022-10-04T21:35:52.271Z,4.70
2022-10-04T21:38:20.547Z,4.72
2022-10-04T21:40:49.838Z,4.97
2022-10-04T21:43:17.835Z,4.78
2022-10-04T21:45:45.899Z,4.78
2022-10-04T21:48:13.889Z,4.70
2022-10-04T21:50:42.726Z,4.72
2022-10-04T21:53:11.341Z,4.65
2022-10-04T21:55:39.245Z,4.47
2022-10-04T21:58:08.499Z,4.50
2022-10-04T22:00:36.440Z,4.78
2022-10-04T22:03:04.447Z,5.10
2022-10-04T22:05:32.753Z,5.07
2022-10-04T22:08:00.656Z,5.22
2022-10-04T22:10:28.668Z,4.75
2022-10-04T22:12:57.159Z,4.28
2022-10-04T22:15:28.945Z,5.15
2022-10-04T22:17:57.598Z,4.78
2022-10-04T22:20:26.393Z,4.72
2022-10-04T22:22:55.592Z,5.30
2022-10-04T22:25:27.217Z,4.50
2022-10-04T22:27:55.241Z,5.28
2022-10-04T22:30:29.020Z,4.63
2022-10-04T22:33:01.098Z,4.90
2022-10-04T22:35:33.702Z,4.47
2022-10-04T22:38:01.830Z,4.68
2022-10-04T22:40:30.340Z,4.38
2022-10-04T22:43:00.694Z,4.72
2022-10-04T22:45:33.270Z,4.85
2022-10-04T22:48:08.684Z,4.63
2022-10-04T22:50:38.190Z,4.10
2022-10-04T22:53:14.639Z,4.20
2022-10-04T22:55:42.927Z,4.63
2022-10-04T22:58:14.321Z,4.65
2022-10-04T23:00:46.551Z,4.20
2022-10-04T23:03:27.603Z,4.20
2022-10-04T23:05:55.667Z,4.80
2022-10-04T23:08:23.635Z,4.63
2022-10-04T23:10:55.891Z,4.63
2022-10-04T23:13:25.183Z,4.28
2022-10-04T23:16:00.079Z,4.50
2022-10-04T23:18:30.194Z,4.28
2022-10-04T23:21:01.973Z,4.10
2022-10-04T23:23:32.419Z,4.47
2022-10-04T23:26:00.311Z,4.30
2022-10-04T23:28:28.314Z,3.95
2022-10-04T23:31:07.006Z,4.18
2022-10-04T23:33:35.717Z,4.82
2022-10-04T23:36:03.644Z,4.25
2022-10-04T23:38:31.604Z,4.60
2022-10-04T23:40:59.888Z,4.05
2022-10-04T23:43:30.803Z,4.40
2022-10-04T23:46:00.359Z,3.75
2022-10-04T23:48:31.950Z,3.72
2022-10-04T23:51:00.838Z,4.32
2022-10-04T23:53:32.588Z,4.30
2022-10-04T23:56:05.498Z,4.90
2022-10-04T23:58:37.310Z,4.43
